Weather reports worldwide

Advertisment
Vigna Di Valle, Italy (16224): temperature & dewpoint: 08.07.2020 11:00:00 - 14.07.2020 11:00:00 (CEST)Vigna Di Valle, Italy (16224): wind speed: 08.07.2020 11:00:00 - 14.07.2020 11:00:00 (CEST)Vigna Di Valle, Italy (16224): wind direction: 08.07.2020 11:00:00 - 14.07.2020 11:00:00 (CEST)Vigna Di Valle, Italy (16224): reduced air pressure: 08.07.2020 11:00:00 - 14.07.2020 11:00:00 (CEST)Vigna Di Valle, Italy (16224): sunshine duration: 08.07.2020 11:00:00 - 14.07.2020 11:00:00 (CEST)
Date & Time tt [°C] td [°C] ff [km/h] ff [kn] dd ppp [hPa] sd [min]
14.07.2020 11:00:00 24,5 12,9 11 6 N 1012,9 60
14.07.2020 10:00:00 22,9 10,8 15 8 N 1013,0 60
14.07.2020 09:00:00 21,9 10,6 11 6 N 1013,0 60
14.07.2020 08:00:00 20,8 10,9 11 6 N 1013,3 60
14.07.2020 07:00:00 19,5 10,4 9 5 NNE 1013,4 24
14.07.2020 06:00:00 17,6 10,0 9 5 NE 1013,5 0
14.07.2020 05:00:00 18,1 8,8 9 5 NE 1013,4 0
14.07.2020 04:00:00 19,2 8,3 16 9 NNE 1013,3 0
14.07.2020 03:00:00 19,6 6,8 13 7 NNE 1013,7 0
14.07.2020 02:00:00 19,9 5,8 8 4 NNE 1014,1 0
14.07.2020 01:00:00 20,9 5,1 9 5 NNE 1014,1 0
14.07.2020 00:00:00 21,8 3,6 13 7 NNW 1014,4 0
13.07.2020 23:00:00 22,1 5,9 15 8 N 1014,5 0
13.07.2020 22:00:00 22,8 7,1 15 8 N 1014,2 0
13.07.2020 21:00:00 23,8 8,0 15 8 NNW 1013,8 20
13.07.2020 20:00:00 25,7 7,9 15 8 NNW 1013,4 54
13.07.2020 19:00:00 27,7 10,5 13 7 N 1012,9 60
13.07.2020 18:00:00 29,2 10,4 9 5 W 1012,9 57
13.07.2020 17:00:00 28,2 13,9 13 7 SW 1013,4 60
13.07.2020 16:00:00 29,6 15,6 13 7 WSW 1013,9 51
13.07.2020 15:00:00 30,2 5,4 9 5 N 1014,1 60
13.07.2020 14:00:00 29,0 7,0 9 5 N 1014,9 60
13.07.2020 13:00:00 28,0 10,2 11 6 N 1015,6 60
13.07.2020 12:00:00 27,1 11,2 9 5 N 1016,2 60
13.07.2020 11:00:00 25,9 10,9 18 10 N 1016,5 60
13.07.2020 10:00:00 24,5 10,0 18 10 N 1016,6 14
13.07.2020 09:00:00 - - - - - - -
13.07.2020 08:00:00 - - - - - - -
13.07.2020 07:00:00 - - - - - - -
13.07.2020 06:00:00 - - - - - - -
13.07.2020 05:00:00 - - - - - - -
13.07.2020 04:00:00 - - - - - - -
13.07.2020 03:00:00 - - - - - - -
13.07.2020 02:00:00 - - - - - - -
13.07.2020 01:00:00 - - - - - - -
13.07.2020 00:00:00 - - - - - - -
12.07.2020 23:00:00 - - - - - - -
12.07.2020 22:00:00 - - - - - - -
12.07.2020 21:00:00 - - - - - - -
12.07.2020 20:00:00 - - - - - - -
12.07.2020 19:00:00 - - - - - - -
12.07.2020 18:00:00 - - - - - - -
12.07.2020 17:00:00 - - - - - - -
12.07.2020 16:00:00 - - - - - - -
12.07.2020 15:00:00 - - - - - - -
12.07.2020 14:00:00 - - - - - - -
12.07.2020 13:00:00 - - - - - - -
12.07.2020 12:00:00 - - - - - - -
12.07.2020 11:00:00 - - - - - - -
12.07.2020 10:00:00 - - - - - - -
12.07.2020 09:00:00 - - - - - - -
12.07.2020 08:00:00 - - - - - - -
12.07.2020 07:00:00 - - - - - - -
12.07.2020 06:00:00 - - - - - - -
12.07.2020 05:00:00 - - - - - - -
12.07.2020 04:00:00 - - - - - - -
12.07.2020 03:00:00 - - - - - - -
12.07.2020 02:00:00 - - - - - - -
12.07.2020 01:00:00 - - - - - - -
12.07.2020 00:00:00 - - - - - - -
11.07.2020 23:00:00 - - - - - - -
11.07.2020 22:00:00 - - - - - - -
11.07.2020 21:00:00 - - - - - - -
11.07.2020 20:00:00 - - - - - - -
11.07.2020 19:00:00 - - - - - - -
11.07.2020 18:00:00 - - - - - - -
11.07.2020 17:00:00 - - - - - - -
11.07.2020 16:00:00 - - - - - - -
11.07.2020 15:00:00 - - - - - - -
11.07.2020 14:00:00 - - - - - - -
11.07.2020 13:00:00 - - - - - - -
11.07.2020 12:00:00 - - - - - - -
11.07.2020 11:00:00 - - - - - - -
11.07.2020 10:00:00 - - - - - - -
11.07.2020 09:00:00 - - - - - - -
11.07.2020 08:00:00 - - - - - - -
11.07.2020 07:00:00 - - - - - - -
11.07.2020 06:00:00 - - - - - - -
11.07.2020 05:00:00 - - - - - - -
11.07.2020 04:00:00 - - - - - - -
11.07.2020 03:00:00 - - - - - - -
11.07.2020 02:00:00 - - - - - - -
11.07.2020 01:00:00 - - - - - - -
11.07.2020 00:00:00 - - - - - - -
10.07.2020 23:00:00 - - - - - - -
10.07.2020 22:00:00 - - - - - - -
10.07.2020 21:00:00 - - - - - - -
10.07.2020 20:00:00 - - - - - - -
10.07.2020 19:00:00 - - - - - - -
10.07.2020 18:00:00 - - - - - - -
10.07.2020 17:00:00 - - - - - - -
10.07.2020 16:00:00 33,0 10,4 4 2 N 1013,8 60
10.07.2020 15:00:00 33,0 11,7 11 6 WNW 1014,1 60
10.07.2020 14:00:00 32,0 13,2 8 4 N 1014,4 60
10.07.2020 13:00:00 31,8 13,4 8 4 N 1014,7 60
10.07.2020 12:00:00 30,4 14,5 8 4 N 1015,2 60
10.07.2020 11:00:00 29,8 14,4 8 4 NNE 1015,4 60
10.07.2020 10:00:00 28,5 14,7 5 3 NNE 1015,4 60
10.07.2020 09:00:00 26,9 15,1 4 2 N 1015,4 60
10.07.2020 08:00:00 25,5 15,5 4 2 N 1015,3 60
10.07.2020 07:00:00 23,1 17,7 5 3 N 1015,6 23
10.07.2020 06:00:00 20,9 17,5 9 5 N 1015,8 0
10.07.2020 05:00:00 21,4 18,5 5 3 NNE 1015,7 0
10.07.2020 04:00:00 21,8 16,2 5 3 N 1016,0 0
10.07.2020 03:00:00 22,2 13,7 8 4 NW 1016,2 0
10.07.2020 02:00:00 22,9 11,8 4 2 N 1016,4 0
10.07.2020 01:00:00 23,5 14,1 8 4 NW 1016,5 0
10.07.2020 00:00:00 23,6 11,9 8 4 NNW 1016,6 0
09.07.2020 23:00:00 24,3 11,7 4 2 N 1016,3 0
09.07.2020 22:00:00 25,1 11,9 5 3 W 1016,0 0
09.07.2020 21:00:00 25,8 14,1 8 4 W 1015,6 25
09.07.2020 20:00:00 28,8 14,5 11 6 W 1015,1 60
09.07.2020 19:00:00 30,5 13,5 11 6 W 1014,9 60
09.07.2020 18:00:00 31,1 12,3 11 6 W 1015,1 60
09.07.2020 17:00:00 32,3 13,1 8 4 NW 1015,3 60
09.07.2020 16:00:00 32,4 13,6 4 2 N 1015,3 60
09.07.2020 15:00:00 32,2 13,9 18 10 SW 1015,8 57
09.07.2020 14:00:00 31,6 16,2 4 2 N 1016,0 44
09.07.2020 13:00:00 30,8 16,1 9 5 N 1016,4 60
09.07.2020 12:00:00 29,4 17,0 4 2 N 1016,7 60
09.07.2020 11:00:00 28,6 16,5 8 4 N 1017,0 60
09.07.2020 10:00:00 27,4 16,4 5 3 NE 1017,1 60
09.07.2020 09:00:00 25,6 19,2 8 4 NE 1017,2 60
09.07.2020 08:00:00 23,8 21,4 8 4 NE 1017,2 59
09.07.2020 07:00:00 22,1 21,5 8 4 NE 1016,9 26
09.07.2020 06:00:00 20,3 20,3 5 3 NNE 1016,7 0
09.07.2020 05:00:00 19,9 19,8 5 3 NNW 1016,8 0
09.07.2020 04:00:00 20,6 20,5 5 3 NE 1016,7 0
09.07.2020 03:00:00 20,8 20,0 5 3 NW 1016,8 0
09.07.2020 02:00:00 21,3 17,7 5 3 NNW 1016,7 0
09.07.2020 01:00:00 21,6 15,8 4 2 N 1016,7 0
09.07.2020 00:00:00 21,8 18,9 5 3 W 1016,8 0
08.07.2020 23:00:00 21,8 21,6 5 3 SW 1016,8 0
08.07.2020 22:00:00 22,3 21,8 8 4 SSW 1016,3 0
08.07.2020 21:00:00 23,9 20,8 11 6 SSW 1015,5 25
08.07.2020 20:00:00 26,4 17,5 11 6 SW 1015,1 60
08.07.2020 19:00:00 27,0 19,3 15 8 SSW 1015,0 60
08.07.2020 18:00:00 27,5 19,2 16 9 SSW 1015,0 60
08.07.2020 17:00:00 28,1 19,0 18 10 SSW 1015,3 60
08.07.2020 16:00:00 28,3 18,7 16 9 SW 1015,3 60
08.07.2020 15:00:00 29,0 17,6 13 7 S 1015,2 60
08.07.2020 14:00:00 29,0 17,7 4 2 N 1015,5 57
08.07.2020 13:00:00 28,8 15,4 9 5 NNE 1015,7 60
08.07.2020 12:00:00 27,8 15,4 8 4 NNE 1015,9 60
08.07.2020 11:00:00 26,1 14,5 8 4 NNE 1016,0 60

tt = temperature
td = dewpoint
ff = wind speed
dd = wind direction
ppp = reduced air pressure
sd = sunshine duration

Next stations